Time;durP1;ratioP1;P1;durP2;ratioP2;P2;SDS_P1;SDS_P2;PMS_P1;PMS_P2;Temp;Humidity;BMP_temperature;BMP_pressure;BME280_temperature;BME280_humidity;BME280_pressure;Samples;Min_cycle;Max_cycle;Signal;HPM_P1;HPM_P2
2023/05/26 00:00:12;;;;;;;8.80;3.58;;;;;;;22.70;50.73;99790.78;4496814;31;35708;-61
2023/05/26 00:02:40;;;;;;;11.63;5.30;;;;;;;22.84;50.42;99789.91;4490398;31;34353;-63
2023/05/26 00:05:09;;;;;;;10.40;4.93;;;;;;;22.85;50.52;99786.13;4493183;31;33591;-63
2023/05/26 00:07:39;;;;;;;7.57;5.07;;;;;;;22.79;50.48;99784.16;4496502;31;34101;-63
2023/05/26 00:10:08;;;;;;;9.00;5.72;;;;;;;22.81;50.41;99790.28;4489004;31;33704;-62
2023/05/26 00:12:36;;;;;;;11.23;6.03;;;;;;;22.62;50.98;99793.63;4490022;31;33415;-63
2023/05/26 00:15:05;;;;;;;13.90;5.30;;;;;;;22.61;50.94;99791.94;4490409;31;34096;-63
2023/05/26 00:17:33;;;;;;;8.57;5.93;;;;;;;22.40;51.32;99787.25;4488202;31;33878;-63
2023/05/26 00:20:00;;;;;;;6.25;3.97;;;;;;;22.33;51.69;99792.63;4480927;31;34029;-63
2023/05/26 00:22:28;;;;;;;10.65;5.10;;;;;;;22.48;51.11;99789.91;4496152;31;33258;-63
2023/05/26 00:24:56;;;;;;;7.78;4.37;;;;;;;;;;4486634;31;33731;-63
2023/05/26 00:27:23;;;;;;;8.57;4.80;;;;;;;22.55;51.22;99788.09;4491375;31;34223;-63
2023/05/26 00:29:50;;;;;;;7.07;4.60;;;;;;;22.54;51.18;99795.44;4482469;31;35622;-62
2023/05/26 00:32:19;;;;;;;7.97;5.20;;;;;;;22.66;51.01;99792.19;4491136;31;33799;-62
2023/05/26 00:34:46;;;;;;;9.90;4.85;;;;;;;22.60;51.11;99791.09;4490759;31;34971;-62
2023/05/26 00:37:14;;;;;;;10.25;5.85;;;;;;;22.66;50.75;99792.19;4491424;31;34021;-62
2023/05/26 00:39:42;;;;;;;12.20;5.60;;;;;;;22.44;51.32;99792.16;4491602;31;35034;-63
2023/05/26 00:42:09;;;;;;;9.07;5.22;;;;;;;;;;4490960;31;33530;-62
2023/05/26 00:44:36;;;;;;;8.13;4.37;;;;;;;22.59;51.01;99789.38;4485892;31;32158;-63
2023/05/26 00:47:04;;;;;;;8.57;5.25;;;;;;;22.51;51.23;99782.19;4491980;31;35075;-62
2023/05/26 00:49:32;;;;;;;9.43;5.18;;;;;;;22.42;51.28;99786.03;4489359;31;35218;-62
2023/05/26 00:51:59;;;;;;;8.73;5.87;;;;;;;22.10;52.03;99787.25;4482289;31;34665;-62
2023/05/26 00:54:28;;;;;;;8.50;5.22;;;;;;;22.47;51.21;99778.16;4484913;31;32858;-62
2023/05/26 00:56:56;;;;;;;16.00;6.30;;;;;;;22.04;52.66;99788.84;4479622;31;35319;-62
2023/05/26 00:59:24;;;;;;;11.43;6.20;;;;;;;22.36;51.54;99778.63;4491399;31;34408;-62
2023/05/26 01:01:52;;;;;;;10.85;6.47;;;;;;;22.27;51.49;99777.88;4488301;31;34036;-62
2023/05/26 01:04:21;;;;;;;8.13;4.95;;;;;;;22.32;51.37;99777.31;4481563;31;32516;-62
2023/05/26 01:06:50;;;;;;;12.32;5.47;;;;;;;22.30;51.56;99773.94;4490028;31;32919;-63
2023/05/26 01:09:18;;;;;;;15.65;5.60;;;;;;;22.29;51.64;99774.97;4491258;31;32831;-62
2023/05/26 01:12:01;;;;;;;8.18;4.07;;;;;;;22.26;51.76;99776.19;4489399;31;34467;-62
2023/05/26 01:14:41;;;;;;;10.15;6.05;;;;;;;22.25;51.79;99771.78;4479303;31;35140;-62
2023/05/26 01:17:18;;;;;;;9.55;4.90;;;;;;;22.21;51.80;99775.91;4490723;31;34202;-62
2023/05/26 01:20:07;;;;;;;10.48;5.75;;;;;;;22.14;51.87;99774.94;4488463;31;33769;-62
2023/05/26 01:22:51;;;;;;;8.82;5.25;;;;;;;22.15;51.91;99786.69;4494901;31;33417;-62
2023/05/26 01:25:28;;;;;;;7.47;4.60;;;;;;;22.14;51.79;99774.09;4491434;31;33758;-62
2023/05/26 01:28:06;;;;;;;11.38;5.50;;;;;;;22.09;51.84;99774.69;4484712;31;32813;-62
2023/05/26 01:30:35;;;;;;;11.63;5.87;;;;;;;21.92;52.19;99768.53;4478425;31;33857;-62
2023/05/26 01:33:02;;;;;;;9.98;5.75;;;;;;;21.99;51.96;99771.38;4480113;31;33601;-62
2023/05/26 01:35:30;;;;;;;7.85;4.55;;;;;;;21.93;52.23;99775.72;4480635;31;34606;-62
2023/05/26 01:37:59;;;;;;;8.95;4.62;;;;;;;21.89;52.25;99771.66;4494582;31;33758;-62
2023/05/26 01:40:30;;;;;;;8.98;4.72;;;;;;;21.95;52.12;99770.06;4492666;31;34155;-61
2023/05/26 01:42:59;;;;;;;7.55;5.18;;;;;;;21.83;52.50;99770.53;4493693;31;33602;-62
2023/05/26 01:45:34;;;;;;;8.00;4.40;;;;;;;21.83;52.47;99766.97;4496128;31;32488;-61
2023/05/26 01:48:03;;;;;;;11.52;5.50;;;;;;;21.84;52.37;99763.22;4479496;31;34036;-62
2023/05/26 01:50:40;;;;;;;11.85;5.10;;;;;;;21.75;52.50;99764.31;4484294;31;33910;-61
2023/05/26 01:53:09;;;;;;;6.62;4.65;;;;;;;21.71;52.64;99763.00;4481829;31;33136;-61
2023/05/26 01:55:38;;;;;;;9.13;4.95;;;;;;;21.67;52.63;99758.94;4479220;31;32447;-61
2023/05/26 01:58:05;;;;;;;8.60;5.00;;;;;;;21.56;52.92;99752.09;4484020;31;35166;-62
2023/05/26 02:00:35;;;;;;;8.45;4.87;;;;;;;21.48;53.17;99758.47;4485830;31;35237;-61
2023/05/26 02:03:03;;;;;;;23.77;5.45;;;;;;;21.46;53.16;99763.25;4489545;31;33041;-62
2023/05/26 02:05:30;;;;;;;8.88;5.18;;;;;;;21.50;53.07;99772.72;4481077;31;34758;-62
2023/05/26 02:07:58;;;;;;;10.98;5.95;;;;;;;21.39;53.29;99765.84;4487121;31;35224;-61
2023/05/26 02:10:26;;;;;;;11.55;5.68;;;;;;;21.53;52.96;99769.62;4490328;31;34009;-62
2023/05/26 02:12:53;;;;;;;8.90;4.57;;;;;;;21.30;53.53;99766.09;4497275;31;33399;-61
2023/05/26 02:15:21;;;;;;;8.77;4.50;;;;;;;21.37;53.25;99762.47;4498767;31;33617;-61
2023/05/26 02:17:49;;;;;;;12.43;5.87;;;;;;;21.40;53.07;99758.53;4491812;31;33773;-62
2023/05/26 02:20:16;;;;;;;10.75;5.03;;;;;;;21.20;53.60;99766.34;4489953;31;32832;-62
2023/05/26 02:22:45;;;;;;;8.45;5.07;;;;;;;21.27;53.37;99766.44;4494538;31;34700;-62
2023/05/26 02:25:12;;;;;;;7.87;5.53;;;;;;;21.25;53.34;99757.59;4495176;31;33599;-62
2023/05/26 02:27:40;;;;;;;8.40;4.80;;;;;;;21.15;53.58;99761.47;4489808;31;33674;-62
2023/05/26 02:30:10;;;;;;;7.93;4.35;;;;;;;21.25;53.28;99766.66;4495266;31;34022;-62
2023/05/26 02:32:37;;;;;;;7.45;4.37;;;;;;;21.21;53.46;99765.28;4483428;31;33546;-62
2023/05/26 02:35:05;;;;;;;8.57;5.75;;;;;;;21.26;53.25;99770.22;4483195;31;35046;-62
2023/05/26 02:37:35;;;;;;;6.82;4.05;;;;;;;21.24;53.40;99764.94;4490173;31;35282;-62
2023/05/26 02:40:04;;;;;;;8.27;5.47;;;;;;;21.13;53.87;99760.78;4492666;31;34099;-62
2023/05/26 02:42:34;;;;;;;8.68;4.68;;;;;;;21.23;53.64;99765.97;4496412;31;34973;-62
2023/05/26 02:45:02;;;;;;;11.27;5.57;;;;;;;21.23;53.48;99768.69;4494125;31;34377;-61
2023/05/26 02:47:31;;;;;;;7.30;4.82;;;;;;;21.23;53.70;99768.69;4492761;31;34039;-62
2023/05/26 02:49:58;;;;;;;9.65;5.18;;;;;;;21.26;53.56;99770.22;4490701;31;33792;-62
2023/05/26 02:52:26;;;;;;;9.43;4.60;;;;;;;21.11;53.97;99765.53;4492072;31;34687;-62
2023/05/26 02:54:53;;;;;;;5.35;3.90;;;;;;;21.20;53.59;99766.34;4486881;31;33946;-62
2023/05/26 02:57:22;;;;;;;7.28;4.75;;;;;;;21.29;53.31;99767.97;4483694;31;33702;-62
2023/05/26 02:59:49;;;;;;;8.60;4.75;;;;;;;21.26;53.08;99765.59;4493320;31;33507;-63
2023/05/26 03:02:17;;;;;;;9.82;5.28;;;;;;;21.13;53.70;99777.09;4482485;31;33485;-63
2023/05/26 03:04:45;;;;;;;8.00;4.68;;;;;;;21.09;53.75;99773.06;4493549;31;33718;-62
2023/05/26 03:07:12;;;;;;;10.75;5.57;;;;;;;21.06;53.85;99769.84;4492769;31;35531;-62
2023/05/26 03:09:40;;;;;;;11.35;6.22;;;;;;;21.12;53.73;99785.44;4484574;31;34827;-63
2023/05/26 03:12:08;;;;;;;14.75;7.12;;;;;;;21.18;53.50;99776.56;4490445;31;33349;-63
2023/05/26 03:14:36;;;;;;;10.13;6.43;;;;;;;21.16;53.45;99774.03;4481160;31;33712;-63
2023/05/26 03:17:04;;;;;;;8.48;5.32;;;;;;;21.14;53.70;99781.50;4487933;31;33933;-63
2023/05/26 03:19:32;;;;;;;9.32;5.68;;;;;;;21.14;53.76;99778.78;4485871;31;35184;-63
2023/05/26 03:22:01;;;;;;;14.68;6.25;;;;;;;21.12;53.99;99783.59;4486622;31;33539;-61
2023/05/26 03:24:49;;;;;;;11.95;5.37;;;;;;;21.24;53.32;99788.59;4486884;31;35322;-61
2023/05/26 03:27:17;;;;;;;11.50;6.00;;;;;;;21.24;53.35;99783.16;4484194;31;35507;-61
2023/05/26 03:29:45;;;;;;;8.48;4.53;;;;;;;21.25;53.47;99782.97;4490416;31;35130;-60
2023/05/26 03:32:13;;;;;;;14.02;6.20;;;;;;;21.15;54.10;99785.06;4485514;31;34688;-61
2023/05/26 03:34:40;;;;;;;9.75;5.40;;;;;;;21.20;53.65;99785.38;4480938;31;34681;-61
2023/05/26 03:37:08;;;;;;;6.82;4.70;;;;;;;21.33;53.12;99799.22;4487186;31;33596;-61
2023/05/26 03:39:36;;;;;;;19.30;5.10;;;;;;;21.41;53.09;99790.16;4494842;31;33836;-61
2023/05/26 03:42:05;;;;;;;10.02;5.10;;;;;;;21.43;52.82;99790.84;4492891;31;34714;-61
2023/05/26 03:44:33;;;;;;;11.10;4.70;;;;;;;21.42;53.21;99797.31;4490241;31;34265;-60
2023/05/26 03:47:01;;;;;;;10.45;5.62;;;;;;;21.45;52.88;99788.78;4500647;31;34844;-62
2023/05/26 03:49:29;;;;;;;9.02;5.68;;;;;;;21.52;52.64;99789.75;4487073;31;34760;-62
2023/05/26 03:51:56;;;;;;;18.33;7.25;;;;;;;21.61;52.43;99801.41;4488718;31;31963;-61
2023/05/26 03:54:25;;;;;;;12.63;6.87;;;;;;;21.63;52.69;99788.44;4493490;31;34658;-61
2023/05/26 03:56:54;;;;;;;11.82;5.57;;;;;;;21.77;52.51;99794.97;4490235;31;34001;-62
2023/05/26 03:59:22;;;;;;;11.85;6.43;;;;;;;21.86;51.98;99796.53;4493386;31;35011;-61
2023/05/26 04:01:50;;;;;;;14.00;6.20;;;;;;;21.84;52.10;99791.28;4483623;31;34867;-62
2023/05/26 04:04:18;;;;;;;9.30;5.85;;;;;;;21.83;52.23;99797.78;4495290;31;32127;-61
2023/05/26 04:06:46;;;;;;;12.02;7.37;;;;;;;21.97;52.03;99800.69;4491987;31;35479;-61
2023/05/26 04:09:13;;;;;;;12.35;6.97;;;;;;;22.00;51.80;99795.72;4488686;31;32740;-62
2023/05/26 04:11:41;;;;;;;11.52;7.18;;;;;;;21.96;52.08;99797.13;4487332;31;33469;-61
2023/05/26 04:14:09;;;;;;;12.10;6.50;;;;;;;22.04;51.91;99802.47;4484961;31;33225;-61
2023/05/26 04:16:37;;;;;;;15.23;8.65;;;;;;;22.13;51.35;99807.84;4487500;31;35333;-61
2023/05/26 04:19:05;;;;;;;12.70;7.32;;;;;;;21.97;51.65;99804.28;4494119;31;35104;-61
2023/05/26 04:21:32;;;;;;;9.35;6.07;;;;;;;21.90;51.88;99807.94;4498133;31;33418;-61
2023/05/26 04:24:00;;;;;;;13.38;7.05;;;;;;;21.93;52.63;99804.84;4496276;31;35079;-62
2023/05/26 04:26:33;;;;;;;15.70;9.60;;;;;;;22.12;52.00;99804.28;4495772;31;35780;-62
2023/05/26 04:29:01;;;;;;;12.48;6.85;;;;;;;22.23;51.42;99812.00;4490458;31;35580;-62
2023/05/26 04:31:29;;;;;;;14.23;7.80;;;;;;;22.28;51.37;99808.72;4493074;31;32621;-62
2023/05/26 04:33:57;;;;;;;10.40;6.70;;;;;;;22.12;52.16;99809.75;4496919;31;32684;-62
2023/05/26 04:36:25;;;;;;;11.10;8.20;;;;;;;21.98;52.72;99816.84;4494460;31;35219;-62
2023/05/26 04:38:54;;;;;;;12.73;6.37;;;;;;;22.40;50.86;99812.66;4491219;31;33694;-62
2023/05/26 04:41:23;;;;;;;15.45;8.38;;;;;;;22.46;50.81;99806.44;4488251;31;34776;-62
2023/05/26 04:43:52;;;;;;;14.15;8.82;;;;;;;22.08;51.39;99811.97;4493169;31;35043;-62
2023/05/26 04:46:20;;;;;;;9.35;5.62;;;;;;;22.09;51.64;99810.94;4488143;31;32439;-62
2023/05/26 04:48:48;;;;;;;12.20;8.23;;;;;;;22.56;50.63;99814.31;4494463;31;35283;-62
2023/05/26 04:51:15;;;;;;;13.82;7.03;;;;;;;22.60;50.87;99812.94;4495841;31;33622;-61
2023/05/26 04:53:43;;;;;;;14.02;9.45;;;;;;;22.74;50.30;99806.56;4490410;31;34505;-61
2023/05/26 04:56:11;;;;;;;13.75;6.93;;;;;;;22.70;50.18;99810.75;4493535;31;34986;-61
2023/05/26 04:58:38;;;;;;;13.55;8.07;;;;;;;22.83;49.97;99812.78;4498762;31;34127;-61
2023/05/26 05:01:06;;;;;;;15.05;9.23;;;;;;;22.88;50.23;99813.03;4496654;31;33311;-61
2023/05/26 05:03:38;;;;;;;9.98;6.70;;;;;;;22.68;50.95;99817.41;4495475;31;34642;-61
2023/05/26 05:06:07;;;;;;;12.68;8.38;;;;;;;22.91;50.29;99809.91;4497500;31;34287;-61
2023/05/26 05:08:35;;;;;;;15.60;8.15;;;;;;;23.11;49.01;99812.03;4496280;31;34806;-61
2023/05/26 05:11:03;;;;;;;11.70;6.97;;;;;;;23.10;49.69;99815.81;4490410;31;34918;-61
2023/05/26 05:13:33;;;;;;;15.23;8.57;;;;;;;23.10;49.23;99821.28;4497455;31;33526;-62
2023/05/26 05:16:03;;;;;;;13.98;9.15;;;;;;;22.09;51.46;99818.28;4492510;31;33924;-61
2023/05/26 05:18:31;;;;;;;14.75;9.02;;;;;;;21.90;52.04;99816.94;4487626;31;33846;-61
2023/05/26 05:20:58;;;;;;;22.73;10.27;;;;;;;22.23;51.22;99825.63;4495557;31;34864;-62
2023/05/26 05:23:26;;;;;;;15.55;10.00;;;;;;;22.54;50.58;99819.13;4492491;31;34005;-62
2023/05/26 05:25:55;;;;;;;19.37;11.82;;;;;;;22.63;50.46;99828.03;4489397;31;34581;-62
2023/05/26 05:28:22;;;;;;;16.98;9.65;;;;;;;22.39;51.40;99826.47;4488023;31;32985;-61
2023/05/26 05:30:51;;;;;;;14.45;9.57;;;;;;;22.33;51.33;99819.91;4497394;31;33652;-61
2023/05/26 05:33:19;;;;;;;15.15;8.40;;;;;;;22.42;50.83;99821.50;4496028;31;34149;-62
2023/05/26 05:35:47;;;;;;;14.75;9.73;;;;;;;22.42;51.55;99820.66;4491037;31;33769;-62
2023/05/26 05:38:15;;;;;;;14.20;9.07;;;;;;;22.00;52.32;99824.84;4493904;31;33853;-62
2023/05/26 05:40:42;;;;;;;11.95;8.18;;;;;;;22.31;51.49;99828.28;4499143;31;34246;-61
2023/05/26 05:43:11;;;;;;;19.92;8.93;;;;;;;22.40;51.37;99822.72;4492222;31;34584;-61
2023/05/26 05:45:38;;;;;;;16.70;8.00;;;;;;;22.57;52.15;99826.94;4486710;31;32840;-62
2023/05/26 05:48:09;;;;;;;20.50;8.02;;;;;;;22.48;52.36;99825.34;4496313;31;34112;-62
2023/05/26 05:50:37;;;;;;;16.40;9.85;;;;;;;22.43;52.07;99831.34;4498785;31;33920;-62
2023/05/26 05:53:04;;;;;;;15.60;8.48;;;;;;;22.82;51.42;99832.87;4496044;31;32553;-62
2023/05/26 05:55:32;;;;;;;17.17;8.55;;;;;;;22.55;51.41;99837.19;4493883;31;33621;-61
2023/05/26 05:58:00;;;;;;;13.05;7.45;;;;;;;23.14;50.12;99830.75;4494884;31;33772;-61
2023/05/26 06:00:27;;;;;;;14.07;8.35;;;;;;;23.06;50.51;99833.63;4498971;31;33542;-62
2023/05/26 06:02:56;;;;;;;15.50;9.48;;;;;;;22.87;51.53;99837.78;4487398;31;34815;-62
2023/05/26 06:05:24;;;;;;;16.27;10.55;;;;;;;23.08;50.41;99834.25;4484395;31;33999;-61
2023/05/26 06:07:51;;;;;;;15.65;8.70;;;;;;;23.14;50.61;99841.69;4489884;31;35156;-61
2023/05/26 06:10:19;;;;;;;16.25;9.10;;;;;;;23.43;49.73;99847.00;4497872;31;33347;-62
2023/05/26 06:12:47;;;;;;;12.30;7.78;;;;;;;23.27;50.26;99849.16;4494890;31;33490;-61
2023/05/26 06:15:17;;;;;;;12.98;8.15;;;;;;;23.64;49.37;99853.53;4494214;31;35180;-62
2023/05/26 06:17:45;;;;;;;20.20;10.38;;;;;;;23.49;50.42;99851.69;4486675;31;33747;-62
2023/05/26 06:20:13;;;;;;;19.73;10.13;;;;;;;23.75;50.07;99854.91;4489235;31;33644;-61
2023/05/26 06:22:42;;;;;;;11.68;8.07;;;;;;;23.77;49.25;99855.56;4493376;31;33751;-62
2023/05/26 06:25:10;;;;;;;15.05;8.95;;;;;;;23.73;49.28;99854.25;4493253;31;32172;-61
2023/05/26 06:27:38;;;;;;;12.32;6.45;;;;;;;23.73;50.22;99862.47;4496381;31;33123;-61
2023/05/26 06:30:06;;;;;;;15.38;8.60;;;;;;;23.78;49.59;99859.97;4496624;31;33538;-61
2023/05/26 06:32:34;;;;;;;15.07;8.55;;;;;;;24.18;48.25;99855.66;4487383;31;33673;-61
2023/05/26 06:35:02;;;;;;;14.70;9.73;;;;;;;24.01;49.33;99860.56;4498592;31;33680;-61
2023/05/26 06:37:29;;;;;;;12.25;8.18;;;;;;;23.43;50.85;99859.81;4492849;31;34066;-62
2023/05/26 06:39:57;;;;;;;13.20;8.15;;;;;;;23.78;50.09;99855.34;4492753;31;34400;-62
2023/05/26 06:42:26;;;;;;;13.85;7.15;;;;;;;24.32;48.65;99853.84;4494324;31;32491;-62
2023/05/26 06:44:54;;;;;;;14.10;8.05;;;;;;;24.18;48.32;99859.22;4483271;31;33891;-61
2023/05/26 06:47:23;;;;;;;13.18;7.70;;;;;;;24.08;49.14;99850.53;4488930;31;34715;-62
2023/05/26 06:49:56;;;;;;;;;;;;;;;24.08;49.10;99852.44;4496372;31;33583;-62
2023/05/26 06:52:24;;;;;;;18.50;11.32;;;;;;;24.20;49.06;99867.22;4492141;31;34219;-62
2023/05/26 06:54:53;;;;;;;12.68;8.30;;;;;;;24.55;47.60;99857.13;4483217;31;35287;-62
2023/05/26 06:57:20;;;;;;;11.73;6.28;;;;;;;24.50;48.84;99864.28;4488470;31;34589;-62
2023/05/26 06:59:48;;;;;;;12.45;8.50;;;;;;;24.51;47.61;99863.25;4484667;31;33401;-62
2023/05/26 07:02:16;;;;;;;14.52;8.07;;;;;;;24.71;46.23;99864.16;4486308;31;32465;-62
2023/05/26 07:04:44;;;;;;;8.35;5.50;;;;;;;24.53;47.68;99864.72;4496335;31;34634;-62
2023/05/26 07:07:12;;;;;;;13.07;7.87;;;;;;;24.85;47.82;99867.81;4493033;31;34019;-62
2023/05/26 07:09:39;;;;;;;14.32;8.68;;;;;;;24.62;48.27;99866.25;4493415;31;33612;-62
2023/05/26 07:12:09;;;;;;;14.57;8.70;;;;;;;24.99;47.85;99868.72;4492842;31;34016;-64
2023/05/26 07:14:37;;;;;;;13.48;8.13;;;;;;;24.60;47.95;99873.81;4495258;31;32514;-62
2023/05/26 07:17:05;;;;;;;12.05;8.00;;;;;;;24.59;48.57;99874.88;4498001;31;34599;-62
2023/05/26 07:19:33;;;;;;;10.85;6.90;;;;;;;24.49;45.68;99873.53;4494021;31;33384;-62
2023/05/26 07:22:02;;;;;;;7.90;5.70;;;;;;;25.01;46.00;99872.94;4490811;31;34722;-62
2023/05/26 07:24:31;;;;;;;10.10;6.35;;;;;;;24.84;45.37;99872.44;4488506;31;35145;-62
2023/05/26 07:26:59;;;;;;;14.50;7.70;;;;;;;25.01;45.88;99872.94;4482749;31;33833;-62
2023/05/26 07:29:27;;;;;;;13.68;7.28;;;;;;;25.22;45.77;99871.97;4485047;31;33518;-62
2023/05/26 07:31:54;;;;;;;10.57;6.43;;;;;;;25.16;45.07;99877.44;4491548;31;34794;-60
2023/05/26 07:34:22;;;;;;;13.00;8.00;;;;;;;25.39;43.82;99864.19;4481695;31;33604;-60
2023/05/26 07:36:50;;;;;;;19.25;7.40;;;;;;;25.12;45.85;99877.00;4491087;31;33835;-60
2023/05/26 07:39:18;;;;;;;9.88;6.72;;;;;;;25.52;43.78;99872.47;4487459;31;33695;-60
2023/05/26 07:41:46;;;;;;;10.88;6.87;;;;;;;25.35;44.19;99864.81;4495768;31;33528;-60
2023/05/26 07:44:14;;;;;;;9.10;6.37;;;;;;;25.42;42.59;99871.16;4497285;31;34076;-60
2023/05/26 07:46:42;;;;;;;11.95;7.78;;;;;;;25.64;41.88;99872.66;4495597;31;33984;-60
2023/05/26 07:49:10;;;;;;;10.88;6.55;;;;;;;25.63;41.89;99865.50;4498178;31;32306;-60
2023/05/26 07:51:37;;;;;;;10.57;6.93;;;;;;;25.67;42.90;99877.72;4486867;31;33851;-60
2023/05/26 07:54:05;;;;;;;13.25;7.55;;;;;;;25.70;43.68;99871.81;4483076;31;33924;-60
2023/05/26 07:56:32;;;;;;;9.18;5.80;;;;;;;25.84;41.40;99872.69;4489314;31;34108;-61
2023/05/26 07:59:00;;;;;;;14.80;6.43;;;;;;;25.60;43.05;99871.41;4495712;31;32690;-60
2023/05/26 08:01:27;;;;;;;12.63;7.37;;;;;;;25.51;43.01;99868.00;4491552;31;32259;-59
2023/05/26 08:03:55;;;;;;;10.80;6.75;;;;;;;25.38;43.38;99872.63;4483188;31;32766;-60
2023/05/26 08:06:23;;;;;;;14.00;6.45;;;;;;;25.40;42.07;99876.03;4488847;31;34220;-61
2023/05/26 08:08:53;;;;;;;9.70;6.37;;;;;;;25.41;44.08;99869.47;4493217;31;34929;-60
2023/05/26 08:11:22;;;;;;;11.75;6.97;;;;;;;25.70;42.77;99866.34;4489550;31;35625;-61
2023/05/26 08:13:50;;;;;;;9.98;6.03;;;;;;;25.78;42.53;99873.53;4494976;31;33033;-60
2023/05/26 08:16:18;;;;;;;10.45;6.22;;;;;;;26.10;42.14;99873.72;4492090;31;34768;-60
2023/05/26 08:18:46;;;;;;;12.23;6.00;;;;;;;25.92;40.46;99874.41;4490427;31;33602;-61
2023/05/26 08:21:13;;;;;;;15.63;8.30;;;;;;;25.96;40.71;99879.22;4492565;31;34081;-61
2023/05/26 08:23:41;;;;;;;11.00;6.82;;;;;;;25.48;43.96;99881.28;4495212;31;34255;-60
2023/05/26 08:26:09;;;;;;;11.05;6.53;;;;;;;25.82;42.84;99873.97;4487448;31;31443;-60
2023/05/26 08:28:37;;;;;;;10.20;6.40;;;;;;;26.17;41.38;99872.69;4486811;31;33565;-60
2023/05/26 08:31:05;;;;;;;11.65;7.12;;;;;;;25.19;42.63;99866.91;4492394;31;33844;-61
2023/05/26 08:33:33;;;;;;;12.77;7.18;;;;;;;25.87;41.32;99872.28;4483484;31;33810;-60
2023/05/26 08:36:00;;;;;;;10.25;6.53;;;;;;;26.29;40.36;99874.75;4482714;31;34091;-61
2023/05/26 08:38:30;;;;;;;12.27;6.53;;;;;;;26.16;40.75;99876.50;4486996;31;33851;-61
2023/05/26 08:41:00;;;;;;;10.73;6.40;;;;;;;26.36;38.39;99870.13;4491025;31;33772;-61
2023/05/26 08:43:34;;;;;;;13.43;6.55;;;;;;;26.32;38.43;99869.69;4485949;31;33562;-61
2023/05/26 08:46:14;;;;;;;13.57;7.75;;;;;;;25.73;39.47;99870.56;4490958;31;34954;-61
2023/05/26 08:48:44;;;;;;;10.23;5.87;;;;;;;26.11;38.76;99872.69;4492524;31;33858;-61
2023/05/26 08:51:12;;;;;;;11.15;6.28;;;;;;;26.15;39.34;99874.78;4493207;31;33733;-61
2023/05/26 08:53:40;;;;;;;10.55;6.60;;;;;;;26.42;39.12;99880.22;4494027;31;34098;-61
2023/05/26 08:56:09;;;;;;;7.68;5.47;;;;;;;26.44;39.47;99872.63;4492201;31;33875;-61
2023/05/26 08:58:37;;;;;;;8.40;5.62;;;;;;;26.61;37.92;99873.03;4488832;31;33763;-62
2023/05/26 09:01:04;;;;;;;13.35;6.87;;;;;;;26.36;40.00;99865.47;4487469;31;33762;-61
2023/05/26 09:03:32;;;;;;;14.32;6.82;;;;;;;26.18;39.58;99868.03;4491553;31;33357;-61
2023/05/26 09:06:00;;;;;;;9.30;6.03;;;;;;;26.05;41.80;99868.91;4493508;31;34063;-61
2023/05/26 09:08:28;;;;;;;11.35;6.37;;;;;;;26.56;39.77;99865.44;4494520;31;34735;-61
2023/05/26 09:10:55;;;;;;;11.95;5.47;;;;;;;26.83;39.87;99868.94;4492222;31;34627;-60
2023/05/26 09:13:23;;;;;;;11.10;6.80;;;;;;;26.69;40.80;99865.41;4490970;31;34073;-60
2023/05/26 09:15:53;;;;;;;14.93;7.07;;;;;;;26.93;40.24;99850.09;4498580;31;34568;-60
2023/05/26 09:18:43;;;;;;;13.02;6.65;;;;;;;26.49;41.70;99861.88;4493405;31;33395;-61
2023/05/26 09:21:11;;;;;;;13.18;8.20;;;;;;;27.06;41.16;99867.56;4492922;31;33941;-60
2023/05/26 09:23:39;;;;;;;9.80;6.40;;;;;;;26.34;42.90;99862.09;4490957;31;33361;-61
2023/05/26 09:26:06;;;;;;;14.30;7.43;;;;;;;26.99;40.88;99864.84;4495408;31;33913;-61
2023/05/26 09:28:34;;;;;;;13.88;8.13;;;;;;;27.50;40.33;99863.94;4495090;31;33769;-60
2023/05/26 09:31:08;;;;;;;12.00;7.75;;;;;;;27.86;36.90;99857.78;4495902;31;34658;-61
2023/05/26 09:33:46;;;;;;;12.73;8.05;;;;;;;27.85;37.76;99853.31;4491721;31;33985;-61
2023/05/26 09:36:22;;;;;;;13.38;7.68;;;;;;;28.13;37.76;99856.69;4495079;31;34026;-61
2023/05/26 09:38:52;;;;;;;11.25;7.75;;;;;;;28.19;38.38;99862.13;4494152;31;33281;-61
2023/05/26 09:41:20;;;;;;;13.02;8.10;;;;;;;27.72;38.25;99852.56;4487990;31;33786;-61
2023/05/26 09:43:50;;;;;;;11.50;8.38;;;;;;;27.99;37.85;99861.47;4493814;31;34902;-60
2023/05/26 09:46:22;;;;;;;14.95;7.62;;;;;;;28.03;37.25;99862.72;4492402;31;33917;-61
2023/05/26 09:48:50;;;;;;;12.00;7.43;;;;;;;27.59;38.32;99859.03;4491849;31;33301;-61
2023/05/26 09:51:20;;;;;;;11.15;7.28;;;;;;;27.79;38.40;99853.38;4492294;31;34963;-61
2023/05/26 09:53:57;;;;;;;10.40;6.95;;;;;;;28.05;39.24;99849.56;4493151;31;33839;-61
2023/05/26 09:56:26;;;;;;;10.82;7.30;;;;;;;28.64;37.02;99841.78;4489413;31;34216;-61
2023/05/26 09:58:57;;;;;;;10.68;6.43;;;;;;;28.67;37.65;99842.16;4494681;31;34517;-61
2023/05/26 10:01:26;;;;;;;12.40;7.45;;;;;;;28.20;38.24;99851.97;4485109;31;33611;-61
2023/05/26 10:03:54;;;;;;;10.63;7.45;;;;;;;28.37;37.84;99843.94;4488192;31;34098;-60
2023/05/26 10:06:22;;;;;;;11.88;7.45;;;;;;;28.53;37.01;99851.63;4495185;31;35126;-61
2023/05/26 10:08:52;;;;;;;11.43;6.40;;;;;;;28.97;36.45;99841.31;4483128;31;33289;-60
2023/05/26 10:11:20;;;;;;;10.77;7.45;;;;;;;28.78;36.40;99840.50;4490581;31;32546;-60
2023/05/26 10:13:48;;;;;;;13.48;8.02;;;;;;;28.86;36.58;99851.22;4493834;31;35258;-60
2023/05/26 10:16:15;;;;;;;12.93;7.60;;;;;;;29.59;36.24;99841.91;4482264;31;34118;-60
2023/05/26 10:18:43;;;;;;;10.38;7.15;;;;;;;29.59;35.70;99843.84;4494349;31;34451;-60
2023/05/26 10:21:12;;;;;;;12.23;8.65;;;;;;;29.02;37.16;99842.34;4498468;31;34736;-60
2023/05/26 10:23:44;;;;;;;11.73;7.00;;;;;;;29.17;36.32;99832.81;4498822;31;33209;-60
2023/05/26 10:26:22;;;;;;;16.80;9.05;;;;;;;29.63;36.14;99839.53;4486711;31;33007;-60
2023/05/26 10:28:55;;;;;;;11.85;8.50;;;;;;;29.45;36.63;99837.69;4484989;31;33483;-60
2023/05/26 10:31:30;;;;;;;12.35;7.40;;;;;;;29.59;36.71;99843.84;4490754;31;33655;-60
2023/05/26 10:33:58;;;;;;;12.05;10.23;;;;;;;29.54;35.31;99843.72;4495188;31;35007;-60
2023/05/26 10:36:27;;;;;;;12.98;6.75;;;;;;;29.39;34.94;99836.72;4499912;31;33995;-61
2023/05/26 10:38:55;;;;;;;13.43;8.13;;;;;;;29.42;36.22;99841.75;4497769;31;33628;-60
2023/05/26 10:41:31;;;;;;;11.10;7.45;;;;;;;29.52;36.51;99830.16;4498355;31;33641;-61
2023/05/26 10:44:00;;;;;;;10.52;7.12;;;;;;;29.33;36.57;99823.88;4495464;31;33709;-61
2023/05/26 10:46:47;;;;;;;11.45;7.47;;;;;;;29.53;36.89;99828.22;4491683;31;34026;-61
2023/05/26 10:49:23;;;;;;;10.75;6.90;;;;;;;29.76;36.00;99817.28;4483000;31;34538;-61
2023/05/26 10:51:54;;;;;;;15.20;7.80;;;;;;;29.52;37.39;99821.88;4490363;31;34957;-61
2023/05/26 10:54:24;;;;;;;10.57;7.40;;;;;;;29.51;37.13;99820.22;4483443;31;33902;-61
2023/05/26 10:56:53;;;;;;;10.80;7.82;;;;;;;29.54;35.97;99813.38;4489119;31;33181;-61
2023/05/26 10:59:35;;;;;;;12.95;8.68;;;;;;;29.41;35.29;99818.03;4485195;31;32364;-61
2023/05/26 11:02:05;;;;;;;11.68;7.57;;;;;;;29.42;35.97;99814.19;4488268;31;35028;-61
2023/05/26 11:04:46;;;;;;;12.20;8.75;;;;;;;29.39;35.87;99819.34;4495878;31;33355;-61
2023/05/26 11:07:20;;;;;;;12.00;6.95;;;;;;;28.71;36.14;99813.06;4492920;31;35638;-61
2023/05/26 11:10:02;;;;;;;13.30;7.78;;;;;;;28.99;36.53;99815.22;4499378;31;34823;-61
2023/05/26 11:12:54;;;;;;;10.55;7.07;;;;;;;29.07;35.57;99811.34;4499706;31;35423;-61
2023/05/26 11:15:29;;;;;;;12.20;7.80;;;;;;;29.18;35.59;99809.69;4498869;31;34043;-61
2023/05/26 11:18:03;;;;;;;13.93;7.95;;;;;;;28.82;36.32;99805.09;4492482;31;33941;-61
2023/05/26 11:20:31;;;;;;;12.68;7.22;;;;;;;28.84;36.06;99806.53;4499460;31;33001;-61
2023/05/26 11:22:59;;;;;;;11.10;6.93;;;;;;;28.88;36.40;99807.75;4489505;31;33887;-61
2023/05/26 11:25:27;;;;;;;10.45;6.32;;;;;;;29.17;36.17;99810.75;4498993;31;35386;-61
2023/05/26 11:27:54;;;;;;;11.05;6.93;;;;;;;29.39;35.28;99800.03;4499016;31;35134;-61
2023/05/26 11:30:32;;;;;;;12.70;6.45;;;;;;;29.04;36.16;99789.75;4496929;31;33543;-61
2023/05/26 11:33:01;;;;;;;9.75;6.25;;;;;;;28.41;38.07;99798.38;4498506;31;34937;-61
2023/05/26 11:35:30;;;;;;;11.20;6.50;;;;;;;29.16;36.06;99804.41;4497823;31;34027;-61
2023/05/26 11:37:59;;;;;;;12.50;6.80;;;;;;;29.37;35.80;99800.25;4495596;31;34015;-61